createdAt,value
2019-04-21T00:00:43.476Z,14.58
2019-04-21T00:01:44.174Z,14.60
2019-04-21T00:02:44.123Z,14.69
2019-04-21T00:03:47.723Z,14.65
2019-04-21T00:04:50.843Z,14.54
2019-04-21T00:05:57.563Z,14.55
2019-04-21T00:06:56.887Z,14.54
2019-04-21T00:08:03.639Z,14.55
2019-04-21T00:09:04.274Z,14.58
2019-04-21T00:10:02.621Z,14.59
2019-04-21T00:11:02.969Z,14.50
2019-04-21T00:12:05.972Z,14.65
2019-04-21T00:12:56.184Z,14.63
2019-04-21T00:13:52.665Z,14.48
2019-04-21T00:14:49.509Z,14.53
2019-04-21T00:15:46.714Z,14.48
2019-04-21T00:16:49.110Z,14.47
2019-04-21T00:17:44.488Z,14.48
2019-04-21T00:18:48.602Z,14.47
2019-04-21T00:19:41.270Z,14.43
2019-04-21T00:20:44.928Z,14.48
2019-04-21T00:21:47.046Z,14.45
2019-04-21T00:22:50.998Z,14.47
2019-04-21T00:23:56.166Z,14.45
2019-04-21T00:24:56.182Z,14.47
2019-04-21T00:25:51.236Z,14.51
2019-04-21T00:26:59.038Z,14.54
2019-04-21T00:27:57.612Z,14.60
2019-04-21T00:29:05.063Z,14.59
2019-04-21T00:29:59.137Z,14.63
2019-04-21T00:30:58.093Z,14.68
2019-04-21T00:31:56.399Z,14.59
2019-04-21T00:32:53.518Z,14.53
2019-04-21T00:33:42.835Z,14.58
2019-04-21T00:34:42.048Z,14.43
2019-04-21T00:35:49.951Z,14.45
2019-04-21T00:36:51.520Z,14.47
2019-04-21T00:38:06.214Z,14.47
2019-04-21T00:39:06.652Z,14.55
2019-04-21T00:41:00.571Z,14.47
2019-04-21T00:42:00.865Z,14.50
2019-04-21T00:43:01.382Z,14.43
2019-04-21T00:43:55.689Z,14.51
2019-04-21T00:45:00.782Z,14.59
2019-04-21T00:45:51.916Z,14.48
2019-04-21T00:46:53.437Z,14.47
2019-04-21T00:48:03.899Z,14.47
2019-04-21T00:48:56.418Z,14.43
2019-04-21T00:50:00.046Z,14.43
2019-04-21T00:51:23.085Z,14.45
2019-04-21T00:52:15.899Z,14.44
2019-04-21T00:53:00.500Z,14.48
2019-04-21T00:54:07.078Z,14.50
2019-04-21T00:55:10.121Z,14.55
2019-04-21T00:56:04.526Z,14.51
2019-04-21T00:57:04.200Z,14.55
2019-04-21T00:58:08.367Z,14.68
2019-04-21T00:59:11.725Z,14.68
2019-04-21T01:00:00.814Z,14.68
2019-04-21T01:01:04.469Z,14.51
2019-04-21T01:01:59.753Z,14.53
2019-04-21T01:03:03.257Z,14.59
2019-04-21T01:04:04.845Z,14.59
2019-04-21T01:05:08.727Z,14.63
2019-04-21T01:06:19.119Z,14.55
2019-04-21T01:07:05.611Z,14.66
2019-04-21T01:07:59.427Z,14.58
2019-04-21T01:09:01.179Z,14.50
2019-04-21T01:09:52.557Z,14.53
2019-04-21T01:10:53.046Z,14.54
2019-04-21T01:12:05.135Z,14.40
2019-04-21T01:13:02.715Z,14.37
2019-04-21T01:14:10.074Z,14.41
2019-04-21T01:15:04.846Z,14.43
2019-04-21T01:15:59.569Z,14.40
2019-04-21T01:17:06.827Z,14.35
2019-04-21T01:17:56.021Z,14.40
2019-04-21T01:19:01.895Z,14.36
2019-04-21T01:19:56.108Z,14.30
2019-04-21T01:20:38.894Z,14.35
2019-04-21T01:21:37.889Z,14.29
2019-04-21T01:22:37.866Z,14.29
2019-04-21T01:23:38.124Z,14.30
2019-04-21T01:24:43.364Z,14.33
2019-04-21T01:25:44.873Z,14.35
2019-04-21T01:26:48.469Z,14.23
2019-04-21T01:27:55.125Z,14.26
2019-04-21T01:28:58.643Z,14.22
2019-04-21T01:30:00.073Z,14.12
2019-04-21T01:30:57.350Z,14.07
2019-04-21T01:32:08.581Z,14.07
2019-04-21T01:33:02.536Z,13.99
2019-04-21T01:33:59.105Z,14.03
2019-04-21T01:34:57.828Z,14.05
2019-04-21T01:35:58.321Z,13.97
2019-04-21T01:36:54.164Z,14.07
2019-04-21T01:38:01.963Z,13.95
2019-04-21T01:39:02.185Z,13.96
2019-04-21T01:40:02.043Z,14.00
2019-04-21T01:41:00.696Z,13.97
2019-04-21T01:41:57.400Z,13.99
2019-04-21T01:43:54.548Z,13.93
2019-04-21T01:45:00.032Z,13.89
2019-04-21T01:45:56.497Z,13.93
2019-04-21T01:46:54.496Z,13.96
2019-04-21T01:47:57.499Z,13.93
2019-04-21T01:48:52.494Z,13.96
2019-04-21T01:49:52.720Z,13.96
2019-04-21T01:50:55.581Z,13.97
2019-04-21T01:52:10.590Z,13.89
2019-04-21T01:53:02.402Z,13.85
2019-04-21T01:54:07.645Z,13.77
2019-04-21T01:55:00.381Z,13.81
2019-04-21T01:56:04.843Z,13.70
2019-04-21T01:56:55.658Z,13.70
2019-04-21T01:57:57.597Z,13.70
2019-04-21T01:58:49.360Z,13.75
2019-04-21T01:59:51.177Z,13.67
2019-04-21T02:00:51.936Z,13.72
2019-04-21T02:02:00.124Z,13.70
2019-04-21T02:03:10.703Z,13.68
2019-04-21T02:03:58.270Z,13.63
2019-04-21T02:05:08.093Z,13.67
2019-04-21T02:06:04.470Z,13.59
2019-04-21T02:06:57.952Z,13.57
2019-04-21T02:07:59.130Z,13.53
2019-04-21T02:09:02.250Z,13.62
2019-04-21T02:10:07.841Z,13.68
2019-04-21T02:12:05.677Z,13.60
2019-04-21T02:12:57.094Z,13.53
2019-04-21T02:14:05.511Z,13.50
2019-04-21T02:15:16.976Z,13.50
2019-04-21T02:16:02.081Z,13.42
2019-04-21T02:16:59.289Z,13.41
2019-04-21T02:18:04.628Z,13.38
2019-04-21T02:18:56.799Z,13.38
2019-04-21T02:19:59.034Z,13.35
2019-04-21T02:20:47.686Z,13.37
2019-04-21T02:21:51.973Z,13.27
2019-04-21T02:23:11.462Z,13.27
2019-04-21T02:24:08.174Z,13.15
2019-04-21T02:25:01.082Z,13.23
2019-04-21T02:25:57.326Z,13.27
2019-04-21T02:27:03.475Z,13.13
2019-04-21T02:28:04.783Z,13.00
2019-04-21T02:29:01.925Z,12.91
2019-04-21T02:30:02.790Z,12.85
2019-04-21T02:31:14.300Z,12.93
2019-04-21T02:32:11.401Z,12.80
2019-04-21T02:33:16.914Z,12.79
2019-04-21T02:35:14.187Z,12.61
2019-04-21T02:36:26.551Z,12.47
2019-04-21T02:38:11.868Z,12.21
2019-04-21T02:39:16.392Z,11.97
2019-04-21T02:41:06.810Z,11.86
2019-04-21T02:42:09.707Z,11.70
2019-04-21T02:43:11.321Z,11.54
2019-04-21T02:44:10.095Z,11.36
2019-04-21T02:45:08.231Z,11.41
2019-04-21T02:47:03.635Z,11.12
2019-04-21T02:48:08.830Z,11.04
2019-04-21T02:50:13.846Z,10.93
2019-04-21T02:51:10.379Z,10.74
2019-04-21T02:52:11.511Z,10.75
2019-04-21T02:53:16.419Z,10.69
2019-04-21T02:56:09.643Z,10.51
2019-04-21T02:58:20.812Z,10.46
2019-04-21T02:59:15.305Z,10.38
2019-04-21T03:01:18.776Z,10.28
2019-04-21T03:02:22.778Z,10.22
2019-04-21T03:04:13.637Z,10.16
2019-04-21T03:05:13.549Z,10.22
2019-04-21T03:06:25.116Z,10.19
2019-04-21T03:07:15.014Z,10.10
2019-04-21T03:08:15.076Z,10.05
2019-04-21T03:09:08.804Z,10.04
2019-04-21T03:10:12.298Z,9.94
2019-04-21T03:11:09.287Z,9.94
2019-04-21T03:12:11.159Z,9.99
2019-04-21T03:13:14.109Z,9.89
2019-04-21T03:14:16.069Z,9.91
2019-04-21T03:16:16.959Z,9.94
2019-04-21T03:17:05.391Z,9.82
2019-04-21T03:18:19.580Z,9.80
2019-04-21T03:19:06.775Z,9.77
2019-04-21T03:20:12.484Z,9.80
2019-04-21T03:21:07.111Z,9.84
2019-04-21T03:22:12.984Z,9.84
2019-04-21T03:24:05.864Z,9.84
2019-04-21T03:25:25.127Z,9.82
2019-04-21T03:26:20.252Z,9.73
2019-04-21T03:27:17.218Z,9.68
2019-04-21T03:28:14.309Z,9.74
2019-04-21T03:29:12.646Z,9.66
2019-04-21T03:30:10.324Z,9.62
2019-04-21T03:32:37.219Z,9.64
2019-04-21T03:33:47.060Z,9.54
2019-04-21T03:37:11.284Z,9.44
2019-04-21T03:38:16.804Z,9.36
2019-04-21T03:39:01.813Z,9.36
2019-04-21T03:40:07.942Z,9.36
2019-04-21T03:41:18.904Z,9.46
2019-04-21T03:42:19.861Z,9.36
2019-04-21T03:43:12.685Z,9.40
2019-04-21T03:44:08.835Z,9.54
2019-04-21T03:45:20.395Z,9.48
2019-04-21T03:46:08.142Z,9.65
2019-04-21T03:48:11.411Z,9.89
2019-04-21T03:49:12.953Z,9.89
2019-04-21T03:50:14.731Z,9.89
2019-04-21T03:51:12.511Z,9.98
2019-04-21T03:52:15.052Z,10.20
2019-04-21T03:53:11.543Z,10.15
2019-04-21T03:55:33.371Z,10.01
2019-04-21T03:56:16.005Z,9.97
2019-04-21T04:00:27.611Z,9.73
2019-04-21T04:01:16.539Z,9.61
2019-04-21T04:02:24.384Z,9.65
2019-04-21T04:03:23.543Z,9.54
2019-04-21T04:04:19.569Z,9.48
2019-04-21T04:05:15.402Z,9.46
2019-04-21T04:06:09.563Z,9.32
2019-04-21T04:07:12.980Z,9.31
2019-04-21T04:08:21.841Z,9.14
2019-04-21T04:09:32.566Z,9.22
2019-04-21T04:10:08.364Z,9.16
2019-04-21T04:11:29.139Z,9.16
2019-04-21T04:12:02.435Z,9.21
2019-04-21T04:13:04.601Z,9.13
2019-04-21T04:14:20.397Z,9.19
2019-04-21T04:16:13.787Z,9.16
2019-04-21T04:18:07.663Z,9.13
2019-04-21T04:19:07.020Z,9.08
2019-04-21T04:20:06.018Z,9.00
2019-04-21T04:21:12.695Z,9.14
2019-04-21T04:23:20.661Z,9.14
2019-04-21T04:24:07.207Z,8.97
2019-04-21T04:26:07.206Z,9.03
2019-04-21T04:28:10.186Z,9.11
2019-04-21T04:30:21.574Z,9.03
2019-04-21T04:31:19.638Z,9.02
2019-04-21T04:32:08.014Z,9.08
2019-04-21T04:33:10.314Z,9.03
2019-04-21T04:36:10.633Z,9.02
2019-04-21T04:37:12.325Z,9.06
2019-04-21T04:38:13.437Z,8.99
2019-04-21T04:39:17.619Z,8.95
2019-04-21T04:40:03.542Z,8.97
2019-04-21T04:41:22.163Z,9.03
2019-04-21T04:44:13.360Z,8.92
2019-04-21T04:47:12.764Z,9.08
2019-04-21T04:48:09.208Z,9.21
2019-04-21T04:49:11.141Z,9.23
2019-04-21T04:50:12.530Z,9.39
2019-04-21T04:51:03.836Z,9.32
2019-04-21T04:52:20.307Z,9.40
2019-04-21T04:53:12.038Z,9.46
2019-04-21T04:54:17.111Z,9.54
2019-04-21T04:56:12.219Z,9.58
2019-04-21T04:59:29.616Z,9.79
2019-04-21T05:00:23.976Z,9.89
2019-04-21T05:01:14.310Z,9.97
2019-04-21T05:02:21.534Z,10.01
2019-04-21T05:03:05.437Z,10.07
2019-04-21T05:04:28.302Z,10.09
2019-04-21T05:06:10.315Z,10.20
2019-04-21T05:07:09.127Z,10.13
2019-04-21T05:10:51.547Z,10.23
2019-04-21T05:11:20.684Z,10.16
2019-04-21T05:12:15.961Z,10.09
2019-04-21T05:13:14.350Z,10.01
2019-04-21T05:14:13.476Z,10.10
2019-04-21T05:16:09.915Z,10.19
2019-04-21T05:17:10.807Z,10.17
2019-04-21T05:18:05.061Z,10.16
2019-04-21T05:20:11.714Z,10.59
2019-04-21T05:21:12.525Z,11.17
2019-04-21T05:22:08.217Z,11.84
2019-04-21T05:23:01.069Z,12.58
2019-04-21T05:23:55.771Z,13.11
2019-04-21T05:24:53.805Z,13.60
2019-04-21T05:25:51.189Z,14.04
2019-04-21T05:26:53.596Z,14.45
2019-04-21T05:27:53.219Z,14.81
2019-04-21T05:28:47.432Z,15.07
2019-04-21T05:30:00.228Z,15.39
2019-04-21T05:31:03.760Z,15.68
2019-04-21T05:31:58.474Z,15.86
2019-04-21T05:32:59.929Z,15.94
2019-04-21T05:34:00.375Z,16.23
2019-04-21T05:34:55.732Z,16.42
2019-04-21T05:35:55.494Z,16.53
2019-04-21T05:36:56.525Z,16.79
2019-04-21T05:37:55.217Z,16.97
2019-04-21T05:38:53.459Z,17.27
2019-04-21T05:39:52.418Z,17.44
2019-04-21T05:40:49.836Z,17.30
2019-04-21T05:41:43.216Z,17.06
2019-04-21T05:42:59.842Z,16.90
2019-04-21T05:43:58.817Z,16.97
2019-04-21T05:45:01.588Z,17.14
2019-04-21T05:45:58.427Z,17.39
2019-04-21T05:47:11.462Z,17.36
2019-04-21T05:48:08.821Z,17.31
2019-04-21T05:48:52.473Z,17.27
2019-04-21T05:49:55.287Z,17.54
2019-04-21T05:50:54.080Z,17.70
2019-04-21T05:51:49.879Z,17.67
2019-04-21T05:52:51.874Z,17.95
2019-04-21T05:54:03.556Z,18.29
2019-04-21T05:55:58.412Z,18.33
2019-04-21T05:56:57.804Z,18.18
2019-04-21T05:57:58.538Z,18.16
2019-04-21T05:58:55.859Z,18.22
2019-04-21T05:59:53.317Z,18.37
2019-04-21T06:02:06.100Z,18.59
2019-04-21T06:03:04.292Z,18.84
2019-04-21T06:04:03.665Z,19.11
2019-04-21T06:07:07.527Z,19.52
2019-04-21T06:08:03.042Z,19.76
2019-04-21T06:09:14.542Z,20.02
2019-04-21T06:10:00.133Z,20.11
2019-04-21T06:11:01.082Z,19.96
2019-04-21T06:11:59.792Z,19.88
2019-04-21T06:12:59.257Z,19.85
2019-04-21T06:14:04.403Z,19.64
2019-04-21T06:15:13.834Z,20.02
2019-04-21T06:15:57.993Z,19.84
2019-04-21T06:17:01.773Z,19.79
2019-04-21T06:18:02.888Z,20.09
2019-04-21T06:19:01.046Z,20.09
2019-04-21T06:20:00.123Z,20.16
2019-04-21T06:20:59.748Z,20.11
2019-04-21T06:21:58.313Z,19.96
2019-04-21T06:22:56.818Z,19.69
2019-04-21T06:23:57.071Z,19.51
2019-04-21T06:25:21.588Z,19.86
2019-04-21T06:26:28.217Z,19.96
2019-04-21T06:28:01.579Z,20.60
2019-04-21T06:28:59.664Z,20.66
2019-04-21T06:29:59.962Z,20.88
2019-04-21T06:31:05.495Z,21.09
2019-04-21T06:32:29.576Z,21.06
2019-04-21T06:32:52.836Z,21.07
2019-04-21T06:34:02.182Z,21.14
2019-04-21T06:37:07.916Z,21.66
2019-04-21T06:38:00.126Z,21.72
2019-04-21T06:39:06.500Z,21.82
2019-04-21T06:40:56.406Z,21.27
2019-04-21T06:42:01.326Z,21.17
2019-04-21T06:43:15.698Z,21.18
2019-04-21T06:44:04.158Z,21.14
2019-04-21T06:45:08.739Z,21.39
2019-04-21T06:46:02.278Z,21.46
2019-04-21T06:46:59.053Z,21.57
2019-04-21T06:47:57.815Z,21.62
2019-04-21T06:48:59.512Z,22.07
2019-04-21T06:49:58.709Z,22.13
2019-04-21T06:51:00.190Z,22.25
2019-04-21T06:52:08.448Z,21.51
2019-04-21T06:53:10.783Z,21.36
2019-04-21T06:55:03.556Z,21.51
2019-04-21T06:56:00.015Z,22.08
2019-04-21T06:56:56.361Z,22.02
2019-04-21T06:58:01.883Z,22.02
2019-04-21T06:58:56.233Z,22.10
2019-04-21T06:59:55.722Z,22.30
2019-04-21T07:00:56.171Z,22.39
2019-04-21T07:01:56.722Z,21.60
2019-04-21T07:03:08.409Z,21.67
2019-04-21T07:04:08.112Z,21.70
2019-04-21T07:05:05.702Z,21.27
2019-04-21T07:06:03.588Z,21.40
2019-04-21T07:07:14.495Z,21.57
2019-04-21T07:08:16.987Z,22.10
2019-04-21T07:09:10.304Z,21.93
2019-04-21T07:10:09.133Z,22.07
2019-04-21T07:10:56.803Z,21.77
2019-04-21T07:11:54.909Z,22.14
2019-04-21T07:12:51.358Z,22.11
2019-04-21T07:14:16.071Z,22.50
2019-04-21T07:14:59.312Z,22.54
2019-04-21T07:16:02.832Z,22.14
2019-04-21T07:16:58.260Z,22.35
2019-04-21T07:17:57.799Z,22.33
2019-04-21T07:19:10.057Z,22.66
2019-04-21T07:20:02.151Z,22.48
2019-04-21T07:20:53.237Z,22.18
2019-04-21T07:21:55.576Z,22.29
2019-04-21T07:22:59.027Z,22.48
2019-04-21T07:23:59.166Z,22.81
2019-04-21T07:25:00.292Z,22.30
2019-04-21T07:26:00.413Z,22.28
2019-04-21T07:26:55.625Z,22.29
2019-04-21T07:28:00.068Z,22.62
2019-04-21T07:29:01.765Z,22.96
2019-04-21T07:29:59.733Z,22.94
2019-04-21T07:31:20.806Z,22.72
2019-04-21T07:32:06.518Z,22.72
2019-04-21T07:33:07.163Z,22.63
2019-04-21T07:34:03.640Z,22.60
2019-04-21T07:34:57.376Z,22.11
2019-04-21T07:35:55.733Z,22.65
2019-04-21T07:37:58.967Z,22.65
2019-04-21T07:38:57.289Z,22.98
2019-04-21T07:39:57.294Z,23.05
2019-04-21T07:40:45.788Z,22.90
2019-04-21T07:41:57.533Z,23.25
2019-04-21T07:42:53.329Z,23.20
2019-04-21T07:43:50.996Z,22.93
2019-04-21T07:44:51.234Z,23.15
2019-04-21T07:45:49.807Z,23.41
2019-04-21T07:46:45.280Z,23.62
2019-04-21T07:47:56.541Z,23.00
2019-04-21T07:48:58.748Z,22.69
2019-04-21T07:49:57.507Z,22.96
2019-04-21T07:51:02.256Z,23.00
2019-04-21T07:52:01.374Z,23.65
2019-04-21T07:53:05.197Z,24.08
2019-04-21T07:54:01.793Z,23.88
2019-04-21T07:55:05.932Z,22.99
2019-04-21T07:55:37.285Z,22.45
2019-04-21T07:56:39.573Z,22.80
2019-04-21T07:57:53.146Z,23.23
2019-04-21T07:58:58.329Z,23.77
2019-04-21T08:00:12.476Z,24.02
2019-04-21T08:00:57.351Z,23.81
2019-04-21T08:01:56.346Z,23.84
2019-04-21T08:02:54.428Z,24.11
2019-04-21T08:03:56.136Z,24.24
2019-04-21T08:05:00.681Z,24.24
2019-04-21T08:05:58.873Z,24.69
2019-04-21T08:06:52.124Z,25.31
2019-04-21T08:08:54.485Z,25.41
2019-04-21T08:09:55.357Z,25.10
2019-04-21T08:10:53.636Z,25.08
2019-04-21T08:11:48.746Z,25.40
2019-04-21T08:12:55.618Z,25.33
2019-04-21T08:13:52.972Z,25.21
2019-04-21T08:14:59.618Z,25.18
2019-04-21T08:15:52.826Z,24.60
2019-04-21T08:16:57.738Z,25.11
2019-04-21T08:17:58.175Z,25.62
2019-04-21T08:18:51.927Z,25.28
2019-04-21T08:19:53.597Z,24.78
2019-04-21T08:20:53.459Z,24.57
2019-04-21T08:22:03.823Z,25.10
2019-04-21T08:23:13.086Z,25.54
2019-04-21T08:23:55.321Z,25.40
2019-04-21T08:24:57.736Z,25.69
2019-04-21T08:26:02.948Z,25.41
2019-04-21T08:27:01.819Z,25.38
2019-04-21T08:27:59.817Z,25.10
2019-04-21T08:29:51.606Z,25.07
2019-04-21T08:30:54.273Z,25.43
2019-04-21T08:32:02.876Z,25.80
2019-04-21T08:33:00.565Z,25.99
2019-04-21T08:35:08.468Z,26.36
2019-04-21T08:36:54.277Z,26.55
2019-04-21T08:37:55.321Z,26.33
2019-04-21T08:38:53.590Z,25.90
2019-04-21T08:40:04.961Z,25.90
2019-04-21T08:40:56.299Z,26.53
2019-04-21T08:41:53.976Z,26.55
2019-04-21T08:42:54.982Z,26.13
2019-04-21T08:43:51.584Z,26.19
2019-04-21T08:44:58.674Z,26.52
2019-04-21T08:45:55.301Z,26.84
2019-04-21T08:46:59.136Z,26.84
2019-04-21T08:47:52.521Z,27.10
2019-04-21T08:48:55.401Z,26.84
2019-04-21T08:49:55.924Z,27.00
2019-04-21T08:51:09.624Z,27.14
2019-04-21T08:52:08.221Z,27.30
2019-04-21T08:52:56.422Z,26.26
2019-04-21T08:53:56.774Z,26.37
2019-04-21T08:55:01.969Z,26.06
2019-04-21T08:56:00.893Z,26.41
2019-04-21T08:56:52.710Z,26.10
2019-04-21T08:58:08.563Z,26.59
2019-04-21T08:58:59.086Z,27.20
2019-04-21T09:00:00.032Z,27.64
2019-04-21T09:00:56.226Z,27.65
2019-04-21T09:01:55.242Z,27.39
2019-04-21T09:02:56.118Z,27.29
2019-04-21T09:03:57.029Z,27.18
2019-04-21T09:04:52.469Z,26.74
2019-04-21T09:05:51.178Z,26.68
2019-04-21T09:07:05.135Z,27.12
2019-04-21T09:07:56.006Z,27.51
2019-04-21T09:08:52.245Z,28.01
2019-04-21T09:09:54.714Z,28.60
2019-04-21T09:10:57.397Z,28.08
2019-04-21T09:11:54.098Z,27.37
2019-04-21T09:12:53.493Z,27.51
2019-04-21T09:13:47.768Z,27.60
2019-04-21T09:14:54.213Z,27.82
2019-04-21T09:15:47.484Z,27.70
2019-04-21T09:16:50.305Z,27.22
2019-04-21T09:17:44.522Z,27.36
2019-04-21T09:18:48.724Z,27.18
2019-04-21T09:20:14.649Z,27.30
2019-04-21T09:21:01.148Z,27.54
2019-04-21T09:21:57.466Z,27.36
2019-04-21T09:22:54.251Z,27.32
2019-04-21T09:23:54.656Z,27.14
2019-04-21T09:24:51.622Z,27.64
2019-04-21T09:25:53.129Z,28.02
2019-04-21T09:26:52.925Z,27.59
2019-04-21T09:27:48.937Z,27.12
2019-04-21T09:28:48.317Z,27.18
2019-04-21T09:29:39.273Z,27.40
2019-04-21T09:30:40.135Z,27.36
2019-04-21T09:31:38.900Z,26.99
2019-04-21T09:32:36.321Z,26.96
2019-04-21T09:33:37.750Z,27.30
2019-04-21T09:34:38.490Z,27.67
2019-04-21T09:35:33.566Z,27.87
2019-04-21T09:36:41.294Z,28.23
2019-04-21T09:37:45.681Z,27.70
2019-04-21T09:38:38.279Z,27.73
2019-04-21T09:39:38.718Z,27.67
2019-04-21T09:40:39.456Z,27.14
2019-04-21T09:41:36.969Z,27.18
2019-04-21T09:42:41.545Z,27.20
2019-04-21T09:43:41.253Z,27.21
2019-04-21T09:44:40.028Z,27.08
2019-04-21T09:45:33.310Z,27.14
2019-04-21T09:46:35.436Z,27.05
2019-04-21T09:47:41.786Z,27.37
2019-04-21T09:48:44.276Z,27.37
2019-04-21T09:49:35.411Z,27.20
2019-04-21T09:50:34.606Z,27.32
2019-04-21T09:51:32.594Z,27.05
2019-04-21T09:52:41.751Z,26.68
2019-04-21T09:53:37.767Z,26.51
2019-04-21T09:54:37.051Z,26.83
2019-04-21T09:55:44.003Z,27.39
2019-04-21T09:56:41.486Z,27.11
2019-04-21T09:57:41.463Z,27.51
2019-04-21T09:58:38.677Z,27.11
2019-04-21T09:59:39.844Z,27.11
2019-04-21T10:00:46.476Z,27.45
2019-04-21T10:01:49.128Z,27.75
2019-04-21T10:02:41.401Z,28.20
2019-04-21T10:03:43.487Z,28.32
2019-04-21T10:04:33.631Z,28.57
2019-04-21T10:05:32.154Z,28.19
2019-04-21T10:06:32.999Z,28.23
2019-04-21T10:07:37.022Z,28.57
2019-04-21T10:08:34.265Z,28.52
2019-04-21T10:09:33.236Z,28.47
2019-04-21T10:10:32.092Z,28.57
2019-04-21T10:11:33.227Z,28.19
2019-04-21T10:12:33.112Z,28.27
2019-04-21T10:13:32.071Z,28.41
2019-04-21T10:14:33.022Z,28.27
2019-04-21T10:15:33.138Z,28.22
2019-04-21T10:16:32.155Z,27.80
2019-04-21T10:17:33.032Z,27.93
2019-04-21T10:18:32.024Z,27.78
2019-04-21T10:19:32.016Z,27.12
2019-04-21T10:20:32.897Z,27.22
2019-04-21T10:21:32.005Z,27.68
2019-04-21T10:22:33.015Z,27.90
2019-04-21T10:23:32.000Z,28.22
2019-04-21T10:24:31.984Z,28.41
2019-04-21T10:25:32.479Z,28.97
2019-04-21T10:26:33.247Z,28.84
2019-04-21T10:27:31.958Z,29.10
2019-04-21T10:28:32.915Z,28.75
2019-04-21T10:29:33.358Z,28.60
2019-04-21T10:30:32.931Z,28.74
2019-04-21T10:31:32.493Z,28.98
2019-04-21T10:32:32.369Z,28.17
2019-04-21T10:33:32.536Z,28.12
2019-04-21T10:34:31.905Z,28.59
2019-04-21T10:35:32.962Z,28.41
2019-04-21T10:36:33.131Z,28.33
2019-04-21T10:37:41.905Z,28.02
2019-04-21T10:38:38.905Z,27.65
2019-04-21T10:39:33.653Z,27.86
2019-04-21T10:40:33.961Z,27.86
2019-04-21T10:41:32.994Z,28.04
2019-04-21T10:42:33.143Z,28.59
2019-04-21T10:43:33.364Z,28.69
2019-04-21T10:44:31.799Z,29.29
2019-04-21T10:45:32.791Z,28.85
2019-04-21T10:46:32.877Z,28.01
2019-04-21T10:47:31.789Z,27.93
2019-04-21T10:48:34.552Z,27.92
2019-04-21T10:49:32.731Z,28.08
2019-04-21T10:50:31.742Z,28.29
2019-04-21T10:51:32.887Z,28.54
2019-04-21T10:52:32.911Z,28.67
2019-04-21T10:53:31.745Z,28.45
2019-04-21T10:54:57.292Z,28.63
2019-04-21T10:55:53.305Z,28.85
2019-04-21T10:56:37.969Z,28.72
2019-04-21T10:57:32.708Z,28.27
2019-04-21T10:58:32.148Z,27.65
2019-04-21T10:59:33.119Z,27.75
2019-04-21T11:00:32.389Z,27.92
2019-04-21T11:01:31.646Z,28.29
2019-04-21T11:02:32.845Z,28.57
2019-04-21T11:03:33.066Z,29.04
2019-04-21T11:04:36.418Z,28.72
2019-04-21T11:05:32.667Z,28.75
2019-04-21T11:06:32.607Z,28.76
2019-04-21T11:07:35.826Z,28.70
2019-04-21T11:08:38.033Z,28.97
2019-04-21T11:09:33.866Z,29.08
2019-04-21T11:10:31.973Z,29.04
2019-04-21T11:11:32.126Z,28.75
2019-04-21T11:12:31.547Z,28.85
2019-04-21T11:13:32.641Z,28.84
2019-04-21T11:14:31.628Z,29.08
2019-04-21T11:15:32.745Z,29.34
2019-04-21T11:16:31.515Z,29.13
2019-04-21T11:17:32.333Z,28.91
2019-04-21T11:18:31.713Z,28.42
2019-04-21T11:19:32.698Z,28.44
2019-04-21T11:20:31.479Z,28.17
2019-04-21T11:21:31.465Z,28.48
2019-04-21T11:22:33.545Z,28.57
2019-04-21T11:23:31.472Z,28.59
2019-04-21T11:24:31.491Z,28.63
2019-04-21T11:25:31.435Z,28.32
2019-04-21T11:26:31.796Z,28.04
2019-04-21T11:27:31.414Z,27.90
2019-04-21T11:28:31.417Z,27.87
2019-04-21T11:29:31.429Z,27.83
2019-04-21T11:30:31.742Z,27.64
2019-04-21T11:31:31.372Z,26.65
2019-04-21T11:32:31.359Z,25.68
2019-04-21T11:33:31.383Z,25.32
2019-04-21T11:34:31.509Z,25.06
2019-04-21T11:35:31.350Z,24.81
2019-04-21T11:36:31.434Z,24.81
2019-04-21T11:37:32.280Z,24.58
2019-04-21T11:38:33.496Z,24.50
2019-04-21T11:39:40.999Z,24.51
2019-04-21T11:40:33.955Z,24.08
2019-04-21T11:41:31.835Z,23.95
2019-04-21T11:42:31.257Z,23.88
2019-04-21T11:43:31.254Z,23.96
2019-04-21T11:44:31.261Z,23.96
2019-04-21T11:45:32.273Z,23.93
2019-04-21T11:46:31.233Z,23.99
2019-04-21T11:47:32.293Z,23.81
2019-04-21T11:48:32.547Z,23.74
2019-04-21T11:49:32.573Z,23.58
2019-04-21T11:50:31.177Z,23.69
2019-04-21T11:51:31.167Z,23.54
2019-04-21T11:52:32.572Z,23.59
2019-04-21T11:53:31.141Z,23.46
2019-04-21T11:54:31.141Z,23.48
2019-04-21T11:55:35.241Z,23.37
2019-04-21T11:56:32.716Z,23.37
2019-04-21T11:57:36.697Z,23.23
2019-04-21T11:58:32.103Z,23.36
2019-04-21T11:59:31.131Z,23.20
2019-04-21T12:00:31.609Z,23.27
2019-04-21T12:01:31.879Z,23.44
2019-04-21T12:02:31.045Z,23.56
2019-04-21T12:03:31.695Z,23.65
2019-04-21T12:04:31.669Z,23.74
2019-04-21T12:05:31.015Z,23.98
2019-04-21T12:06:37.718Z,24.10
2019-04-21T12:07:33.328Z,23.98
2019-04-21T12:08:38.211Z,24.10
2019-04-21T12:09:33.210Z,24.01
2019-04-21T12:10:31.511Z,23.81
2019-04-21T12:11:31.448Z,23.58
2019-04-21T12:12:30.946Z,23.44
2019-04-21T12:13:32.099Z,23.21
2019-04-21T12:14:32.041Z,23.08
2019-04-21T12:15:31.431Z,23.08
2019-04-21T12:16:30.890Z,23.03
2019-04-21T12:17:32.048Z,23.06
2019-04-21T12:18:32.468Z,22.96
2019-04-21T12:19:30.862Z,22.98
2019-04-21T12:20:30.851Z,22.96
2019-04-21T12:21:45.058Z,22.94
2019-04-21T12:22:33.966Z,22.91
2019-04-21T12:23:30.818Z,22.94
2019-04-21T12:24:32.788Z,22.91
2019-04-21T12:25:31.388Z,22.93
2019-04-21T12:26:31.793Z,22.91
2019-04-21T12:27:32.016Z,22.93
2019-04-21T12:28:32.274Z,22.91
2019-04-21T12:29:30.754Z,23.00
2019-04-21T12:30:31.550Z,22.96
2019-04-21T12:31:31.730Z,22.91
2019-04-21T12:32:30.710Z,22.88
2019-04-21T12:33:32.076Z,22.99
2019-04-21T12:34:32.090Z,23.02
2019-04-21T12:35:30.677Z,23.08
2019-04-21T12:36:31.711Z,23.08
2019-04-21T12:37:30.997Z,23.12
2019-04-21T12:38:40.719Z,23.12
2019-04-21T12:39:32.796Z,23.10
2019-04-21T12:40:30.781Z,23.00
2019-04-21T12:41:30.850Z,23.08
2019-04-21T12:42:30.600Z,23.05
2019-04-21T12:43:30.715Z,23.09
2019-04-21T12:44:31.635Z,22.91
2019-04-21T12:45:31.629Z,22.98
2019-04-21T12:46:31.753Z,22.93
2019-04-21T12:47:30.544Z,22.81
2019-04-21T12:48:31.697Z,22.87
2019-04-21T12:49:31.743Z,22.70
2019-04-21T12:50:31.952Z,22.68
2019-04-21T12:51:30.522Z,22.66
2019-04-21T12:52:31.520Z,22.55
2019-04-21T12:53:31.839Z,22.62
2019-04-21T12:54:30.466Z,22.69
2019-04-21T12:55:35.129Z,22.83
2019-04-21T12:56:31.661Z,22.90
2019-04-21T12:57:32.793Z,22.99
2019-04-21T12:58:31.131Z,22.85
2019-04-21T12:59:32.298Z,22.78
2019-04-21T13:00:31.227Z,22.63
2019-04-21T13:01:30.735Z,22.66
2019-04-21T13:02:31.617Z,22.63
2019-04-21T13:03:30.535Z,22.55
2019-04-21T13:04:31.585Z,22.68
2019-04-21T13:05:31.550Z,22.70
2019-04-21T13:06:31.715Z,22.91
2019-04-21T13:07:31.197Z,23.18
2019-04-21T13:08:43.597Z,23.25
2019-04-21T13:09:32.481Z,23.27
2019-04-21T13:10:30.576Z,23.23
2019-04-21T13:11:31.004Z,23.13
2019-04-21T13:12:31.107Z,23.21
2019-04-21T13:13:30.290Z,23.20
2019-04-21T13:14:31.509Z,23.25
2019-04-21T13:15:31.392Z,23.24
2019-04-21T13:16:31.597Z,23.21
2019-04-21T13:17:31.107Z,23.17
2019-04-21T13:18:31.233Z,23.03
2019-04-21T13:19:31.417Z,22.96
2019-04-21T13:20:30.221Z,22.87
2019-04-21T13:21:30.163Z,22.75
2019-04-21T13:22:30.181Z,22.68
2019-04-21T13:23:31.283Z,22.60
2019-04-21T13:24:30.133Z,22.66
2019-04-21T13:25:30.118Z,22.72
2019-04-21T13:26:39.439Z,22.69
2019-04-21T13:27:31.097Z,22.69
2019-04-21T13:28:30.411Z,22.70
2019-04-21T13:29:30.303Z,22.85
2019-04-21T13:30:30.568Z,22.94
2019-04-21T13:31:30.090Z,23.15
2019-04-21T13:32:31.154Z,23.03
2019-04-21T13:33:31.234Z,23.05
2019-04-21T13:34:30.016Z,23.13
2019-04-21T13:35:30.971Z,23.20
2019-04-21T13:36:29.994Z,23.24
2019-04-21T13:37:29.984Z,23.25
2019-04-21T13:38:38.729Z,23.36
2019-04-21T13:39:55.471Z,23.59
2019-04-21T13:40:48.689Z,23.66
2019-04-21T13:41:42.805Z,23.81
2019-04-21T13:42:39.429Z,23.77
2019-04-21T13:43:30.934Z,23.68
2019-04-21T13:44:30.906Z,23.48
2019-04-21T13:45:30.077Z,23.37
2019-04-21T13:46:31.047Z,23.36
2019-04-21T13:47:30.485Z,23.23
2019-04-21T13:48:30.701Z,23.17
2019-04-21T13:49:29.878Z,23.24
2019-04-21T13:50:31.064Z,23.39
2019-04-21T13:51:30.902Z,23.39
2019-04-21T13:52:30.931Z,23.34
2019-04-21T13:53:31.255Z,23.28